createdAt,value
2022-09-15T00:01:44.390Z,13.95
2022-09-15T00:04:12.773Z,13.93
2022-09-15T00:06:42.640Z,13.81
2022-09-15T00:09:10.941Z,13.92
2022-09-15T00:11:39.812Z,13.82
2022-09-15T00:14:08.782Z,13.89
2022-09-15T00:16:37.136Z,13.91
2022-09-15T00:19:06.506Z,14.04
2022-09-15T00:21:36.348Z,13.98
2022-09-15T00:24:06.277Z,14.13
2022-09-15T00:26:34.636Z,14.00
2022-09-15T00:29:03.070Z,14.09
2022-09-15T00:31:32.357Z,14.09
2022-09-15T00:34:02.683Z,14.09
2022-09-15T00:36:33.540Z,14.13
2022-09-15T00:39:01.898Z,13.85
2022-09-15T00:41:31.682Z,13.82
2022-09-15T00:44:00.769Z,13.73
2022-09-15T00:46:30.921Z,13.65
2022-09-15T00:49:02.504Z,13.69
2022-09-15T00:51:34.885Z,13.56
2022-09-15T00:54:04.438Z,13.59
2022-09-15T00:56:34.125Z,13.57
2022-09-15T00:59:04.152Z,13.74
2022-09-15T01:01:32.709Z,13.81
2022-09-15T01:04:01.127Z,13.72
2022-09-15T01:06:31.948Z,13.52
2022-09-15T01:09:03.651Z,13.45
2022-09-15T01:11:33.343Z,13.38
2022-09-15T01:14:02.162Z,13.35
2022-09-15T01:16:34.743Z,13.40
2022-09-15T01:19:09.082Z,13.35
2022-09-15T01:21:40.972Z,13.26
2022-09-15T01:24:36.153Z,13.20
2022-09-15T01:27:37.695Z,13.22
2022-09-15T01:30:09.844Z,13.14
2022-09-15T01:33:02.793Z,13.14
2022-09-15T01:35:45.680Z,13.24
2022-09-15T01:38:17.176Z,13.23
2022-09-15T01:40:47.815Z,13.27
2022-09-15T01:43:17.124Z,13.32
2022-09-15T01:45:46.902Z,13.32
2022-09-15T01:48:15.284Z,13.38
2022-09-15T01:50:46.142Z,13.27
2022-09-15T01:53:15.799Z,13.44
2022-09-15T01:55:45.668Z,13.41
2022-09-15T01:58:13.997Z,13.38
2022-09-15T02:00:47.066Z,13.38
2022-09-15T02:03:18.446Z,13.38
2022-09-15T02:05:48.443Z,13.34
2022-09-15T02:08:25.571Z,13.47
2022-09-15T02:10:59.407Z,13.40
2022-09-15T02:13:32.574Z,13.26
2022-09-15T02:16:02.525Z,13.32
2022-09-15T02:18:34.839Z,13.41
2022-09-15T02:21:09.513Z,13.32
2022-09-15T02:23:43.814Z,13.28
2022-09-15T02:26:14.996Z,13.35
2022-09-15T02:28:43.477Z,13.31
2022-09-15T02:31:14.877Z,13.11
2022-09-15T02:33:44.616Z,13.10
2022-09-15T02:36:13.344Z,13.11
2022-09-15T02:38:44.787Z,13.06
2022-09-15T02:41:14.841Z,13.20
2022-09-15T02:43:46.730Z,13.21
2022-09-15T02:46:16.429Z,13.19
2022-09-15T02:48:44.762Z,13.16
2022-09-15T02:51:13.516Z,13.16
2022-09-15T02:53:42.953Z,13.18
2022-09-15T02:56:11.287Z,13.14
2022-09-15T02:58:39.641Z,13.17
2022-09-15T03:01:08.848Z,13.09
2022-09-15T03:03:42.777Z,12.86
2022-09-15T03:06:17.769Z,12.87
2022-09-15T03:08:48.690Z,12.74
2022-09-15T03:11:35.771Z,12.90
2022-09-15T03:14:05.064Z,12.87
2022-09-15T03:16:34.638Z,12.96
2022-09-15T03:19:05.166Z,12.96
2022-09-15T03:21:33.511Z,12.94
2022-09-15T03:24:01.896Z,12.94
2022-09-15T03:26:34.816Z,12.96
2022-09-15T03:29:04.713Z,12.96
2022-09-15T03:31:33.125Z,12.95
2022-09-15T03:34:01.565Z,12.93
2022-09-15T03:36:31.537Z,12.84
2022-09-15T03:38:59.998Z,12.82
2022-09-15T03:41:29.511Z,12.91
2022-09-15T03:43:58.274Z,12.82
2022-09-15T03:46:26.576Z,12.66
2022-09-15T03:48:54.985Z,12.80
2022-09-15T03:51:23.693Z,12.77
2022-09-15T03:53:53.458Z,12.70
2022-09-15T03:56:24.114Z,12.74
2022-09-15T03:58:52.573Z,12.75
2022-09-15T04:01:20.959Z,12.80
2022-09-15T04:03:51.327Z,12.82
2022-09-15T04:06:21.065Z,12.86
2022-09-15T04:08:49.463Z,12.75
2022-09-15T04:11:19.797Z,12.85
2022-09-15T04:13:48.379Z,12.88
2022-09-15T04:16:17.968Z,12.87
2022-09-15T04:18:46.790Z,12.79
2022-09-15T04:21:15.923Z,12.80
2022-09-15T04:23:44.528Z,12.82
2022-09-15T04:26:14.698Z,12.88
2022-09-15T04:28:44.427Z,12.72
2022-09-15T04:31:13.770Z,12.82
2022-09-15T04:33:43.149Z,12.73
2022-09-15T04:36:12.737Z,12.86
2022-09-15T04:38:41.106Z,12.94
2022-09-15T04:41:10.070Z,12.81
2022-09-15T04:43:58.754Z,12.79
2022-09-15T04:46:27.169Z,12.85
2022-09-15T04:48:58.508Z,12.96
2022-09-15T04:51:27.383Z,13.06
2022-09-15T04:53:56.099Z,13.05
2022-09-15T04:56:25.792Z,13.16
2022-09-15T04:58:58.285Z,12.93
2022-09-15T05:01:33.947Z,13.04
2022-09-15T05:04:04.245Z,13.20
2022-09-15T05:06:33.573Z,13.38
2022-09-15T05:09:04.441Z,13.27
2022-09-15T05:11:36.249Z,13.43
2022-09-15T05:14:05.447Z,13.35
2022-09-15T05:16:36.226Z,13.39
2022-09-15T05:19:07.409Z,13.24
2022-09-15T05:21:35.824Z,13.29
2022-09-15T05:24:04.770Z,13.51
2022-09-15T05:26:33.234Z,13.57
2022-09-15T05:29:01.596Z,13.62
2022-09-15T05:31:31.179Z,13.63
2022-09-15T05:34:01.355Z,13.60
2022-09-15T05:36:33.228Z,13.63
2022-09-15T05:39:02.126Z,13.55
2022-09-15T05:41:32.976Z,13.74
2022-09-15T05:44:01.308Z,13.76
2022-09-15T05:46:47.598Z,13.81
2022-09-15T05:49:17.401Z,13.80
2022-09-15T05:51:45.743Z,13.81
2022-09-15T05:54:14.120Z,13.80
2022-09-15T05:56:42.902Z,13.95
2022-09-15T05:59:11.212Z,14.00
2022-09-15T06:01:39.578Z,13.86
2022-09-15T06:04:08.338Z,14.03
2022-09-15T06:06:38.151Z,14.03
2022-09-15T06:09:06.849Z,13.96
2022-09-15T06:11:35.562Z,13.92
2022-09-15T06:14:04.356Z,13.98
2022-09-15T06:16:33.283Z,13.93
2022-09-15T06:19:02.282Z,13.98
2022-09-15T06:21:31.742Z,13.85
2022-09-15T06:24:03.481Z,13.91
2022-09-15T06:26:31.981Z,13.92
2022-09-15T06:29:01.797Z,14.18
2022-09-15T06:31:31.636Z,13.84
2022-09-15T06:34:00.166Z,13.91
2022-09-15T06:36:30.430Z,13.94
2022-09-15T06:39:00.698Z,13.89
2022-09-15T06:42:01.233Z,14.02
2022-09-15T06:44:30.887Z,13.86
2022-09-15T06:46:59.632Z,14.05
2022-09-15T06:49:28.179Z,13.98
2022-09-15T06:51:56.930Z,13.97
2022-09-15T06:54:26.984Z,14.03
2022-09-15T06:56:55.498Z,14.11
2022-09-15T06:59:24.849Z,14.19
2022-09-15T07:01:55.021Z,14.22
2022-09-15T07:04:24.568Z,14.24
2022-09-15T07:06:53.104Z,14.03
2022-09-15T07:09:41.454Z,14.00
2022-09-15T07:12:11.599Z,14.01
2022-09-15T07:14:47.354Z,14.13
2022-09-15T07:17:15.710Z,14.25
2022-09-15T07:19:47.836Z,14.17
2022-09-15T07:22:19.262Z,14.49
2022-09-15T07:24:48.538Z,14.38
2022-09-15T07:27:36.548Z,14.52
2022-09-15T07:30:08.752Z,14.40
2022-09-15T07:32:40.492Z,14.33
2022-09-15T07:35:09.162Z,14.36
2022-09-15T07:37:37.515Z,14.60
2022-09-15T07:40:26.055Z,14.61
2022-09-15T07:42:56.220Z,14.52
2022-09-15T07:45:25.403Z,14.42
2022-09-15T07:47:54.863Z,14.62
2022-09-15T07:50:23.241Z,14.90
2022-09-15T07:52:51.587Z,14.69
2022-09-15T07:55:19.897Z,14.79
2022-09-15T07:57:48.424Z,14.87
2022-09-15T08:00:18.458Z,14.87
2022-09-15T08:02:46.871Z,14.83
2022-09-15T08:05:15.402Z,14.96
2022-09-15T08:07:43.832Z,14.98
2022-09-15T08:10:12.286Z,14.90
2022-09-15T08:12:42.096Z,15.05
2022-09-15T08:15:10.936Z,15.29
2022-09-15T08:17:40.623Z,15.44
2022-09-15T08:20:09.444Z,15.57
2022-09-15T08:22:38.992Z,15.54
2022-09-15T08:25:08.261Z,15.62
2022-09-15T08:27:36.590Z,15.84
2022-09-15T08:30:05.356Z,15.91
2022-09-15T08:32:33.730Z,16.04
2022-09-15T08:35:06.859Z,15.92
2022-09-15T08:37:35.438Z,16.08
2022-09-15T08:40:04.571Z,16.08
2022-09-15T08:42:33.331Z,16.32
2022-09-15T08:45:03.285Z,16.01
2022-09-15T08:47:33.276Z,16.31
2022-09-15T08:50:05.361Z,16.19
2022-09-15T08:55:57.144Z,16.39
2022-09-15T08:58:26.888Z,15.97
2022-09-15T09:00:58.437Z,16.20
2022-09-15T09:03:35.046Z,16.16
2022-09-15T09:06:08.016Z,16.37
2022-09-15T09:08:47.424Z,16.23
2022-09-15T09:11:20.093Z,16.39
2022-09-15T09:13:53.145Z,16.38
2022-09-15T09:16:32.774Z,16.59
2022-09-15T09:19:07.052Z,16.54
2022-09-15T09:21:54.434Z,16.34
2022-09-15T09:24:28.882Z,16.50
2022-09-15T09:26:57.217Z,16.56
2022-09-15T09:29:30.800Z,16.80
2022-09-15T09:32:02.042Z,17.17
2022-09-15T09:34:32.933Z,16.97
2022-09-15T09:37:10.084Z,16.99
2022-09-15T09:39:38.594Z,17.14
2022-09-15T09:42:09.145Z,17.40
2022-09-15T09:44:37.579Z,17.53
2022-09-15T09:47:06.031Z,17.59
2022-09-15T09:49:36.320Z,17.49
2022-09-15T09:52:06.292Z,17.49
2022-09-15T09:54:35.911Z,17.25
2022-09-15T09:57:22.312Z,17.47
2022-09-15T09:59:50.887Z,17.31
2022-09-15T10:02:23.801Z,17.37
2022-09-15T10:04:53.330Z,17.15
2022-09-15T10:07:24.955Z,16.98
2022-09-15T10:09:56.412Z,17.19
2022-09-15T10:12:27.015Z,17.37
2022-09-15T10:14:57.189Z,17.38
2022-09-15T10:17:26.867Z,17.49
2022-09-15T10:19:56.355Z,17.83
2022-09-15T10:22:29.814Z,17.60
2022-09-15T10:25:01.817Z,17.56
2022-09-15T10:27:31.814Z,17.77
2022-09-15T10:30:02.021Z,17.77
2022-09-15T10:32:31.233Z,17.70
2022-09-15T10:35:02.284Z,18.00
2022-09-15T10:37:36.344Z,17.78
2022-09-15T10:40:13.094Z,17.75
2022-09-15T10:42:47.992Z,17.61
2022-09-15T10:45:19.968Z,17.75
2022-09-15T10:47:57.016Z,17.92
2022-09-15T10:50:27.509Z,17.78
2022-09-15T10:53:07.796Z,17.79
2022-09-15T10:55:53.097Z,17.26
2022-09-15T10:58:31.136Z,17.10
2022-09-15T11:01:20.767Z,17.28
2022-09-15T11:04:01.528Z,17.31
2022-09-15T11:06:31.300Z,16.81
2022-09-15T11:09:10.227Z,17.11
2022-09-15T11:11:45.297Z,17.15
2022-09-15T11:14:21.377Z,16.91
2022-09-15T11:16:58.810Z,17.09
2022-09-15T11:19:36.463Z,17.12
2022-09-15T11:22:07.254Z,17.48
2022-09-15T11:24:43.215Z,17.86
2022-09-15T11:27:15.623Z,17.79
2022-09-15T11:30:01.353Z,17.77
2022-09-15T11:32:32.491Z,17.46
2022-09-15T11:35:04.043Z,17.51
2022-09-15T11:37:39.792Z,17.79
2022-09-15T11:40:17.667Z,17.80
2022-09-15T11:42:47.543Z,17.76
2022-09-15T11:45:17.266Z,17.64
2022-09-15T11:47:46.077Z,17.54
2022-09-15T11:50:18.369Z,17.56
2022-09-15T11:52:51.333Z,17.53
2022-09-15T11:55:44.109Z,17.10
2022-09-15T11:58:22.039Z,17.21
2022-09-15T12:00:54.197Z,17.13
2022-09-15T12:03:25.751Z,17.13
2022-09-15T12:05:56.116Z,17.09
2022-09-15T12:08:29.058Z,16.98
2022-09-15T12:11:01.000Z,16.62
2022-09-15T12:13:32.748Z,16.78
2022-09-15T12:16:02.294Z,16.78
2022-09-15T12:18:39.243Z,16.64
2022-09-15T12:21:15.673Z,16.40
2022-09-15T12:23:46.381Z,16.50
2022-09-15T12:26:17.737Z,15.69
2022-09-15T12:28:58.220Z,15.59
2022-09-15T12:31:29.726Z,15.32
2022-09-15T12:33:59.455Z,15.29
2022-09-15T12:36:38.108Z,15.32
2022-09-15T12:39:18.435Z,15.39
2022-09-15T12:41:53.028Z,15.40
2022-09-15T12:44:25.980Z,15.57
2022-09-15T12:46:55.231Z,15.37
2022-09-15T12:49:28.358Z,15.70
2022-09-15T12:51:56.730Z,15.67
2022-09-15T12:54:25.621Z,15.70
2022-09-15T12:56:55.670Z,15.74
2022-09-15T12:59:26.102Z,15.84
2022-09-15T13:01:54.546Z,15.95
2022-09-15T13:04:33.693Z,16.08
2022-09-15T13:07:24.128Z,16.11
2022-09-15T13:09:59.199Z,16.02
2022-09-15T13:12:32.213Z,16.17
2022-09-15T13:15:02.969Z,16.11
2022-09-15T13:17:31.296Z,16.07
2022-09-15T13:20:00.837Z,16.08
2022-09-15T13:22:31.278Z,15.99
2022-09-15T13:25:02.069Z,16.08
2022-09-15T13:27:36.574Z,16.21
2022-09-15T13:30:11.597Z,16.19
2022-09-15T13:32:42.483Z,16.24
2022-09-15T13:35:50.077Z,16.22
2022-09-15T13:38:42.456Z,16.43
2022-09-15T13:41:28.741Z,16.32
2022-09-15T13:44:20.067Z,16.40
2022-09-15T13:46:57.531Z,16.45
2022-09-15T13:49:36.656Z,16.50
2022-09-15T13:52:09.877Z,16.56
2022-09-15T13:54:38.280Z,16.73
2022-09-15T13:57:06.975Z,16.41
2022-09-15T13:59:36.744Z,16.72
2022-09-15T14:02:09.166Z,16.47
2022-09-15T14:04:38.258Z,16.51
2022-09-15T14:07:06.706Z,16.72
2022-09-15T14:09:47.958Z,16.46
2022-09-15T14:12:22.893Z,16.67
2022-09-15T14:14:54.978Z,16.43
2022-09-15T14:17:28.951Z,16.57
2022-09-15T14:19:58.525Z,16.73
2022-09-15T14:22:29.312Z,16.83
2022-09-15T14:24:58.493Z,16.81
2022-09-15T14:27:45.832Z,16.72
2022-09-15T14:30:20.415Z,16.57
2022-09-15T14:32:52.303Z,16.76
2022-09-15T14:35:23.211Z,16.62
2022-09-15T14:37:52.134Z,16.69
2022-09-15T14:40:24.552Z,16.55
2022-09-15T14:42:53.088Z,16.42
2022-09-15T14:48:16.629Z,16.38
2022-09-15T14:51:04.160Z,16.51
2022-09-15T14:53:34.119Z,16.41
2022-09-15T14:56:07.827Z,16.37
2022-09-15T14:58:55.764Z,16.24
2022-09-15T15:01:26.934Z,16.56
2022-09-15T15:03:57.538Z,16.55
2022-09-15T15:06:30.694Z,16.25
2022-09-15T15:08:59.790Z,16.25
2022-09-15T15:11:28.102Z,16.55
2022-09-15T15:13:57.295Z,16.40
2022-09-15T15:16:29.623Z,16.47
2022-09-15T15:18:58.299Z,16.54
2022-09-15T15:21:36.562Z,16.59
2022-09-15T15:24:20.554Z,16.73
2022-09-15T15:26:49.630Z,16.83
2022-09-15T15:29:39.058Z,16.67
2022-09-15T15:32:12.768Z,16.62
2022-09-15T15:34:41.177Z,16.77
2022-09-15T15:37:15.327Z,16.82
2022-09-15T15:39:46.238Z,16.69
2022-09-15T15:42:16.522Z,16.79
2022-09-15T15:45:00.532Z,16.93
2022-09-15T15:47:31.379Z,16.55
2022-09-15T15:50:12.917Z,16.53
2022-09-15T15:52:42.683Z,16.74
2022-09-15T15:55:14.698Z,16.48
2022-09-15T15:57:43.044Z,16.57
2022-09-15T16:00:21.321Z,16.76
2022-09-15T16:02:53.364Z,16.63
2022-09-15T16:05:22.500Z,16.50
2022-09-15T16:07:52.694Z,16.63
2022-09-15T16:10:22.323Z,16.56
2022-09-15T16:12:51.056Z,16.60
2022-09-15T16:15:20.665Z,16.42
2022-09-15T16:17:49.409Z,16.36
2022-09-15T16:20:20.495Z,16.50
2022-09-15T16:25:40.492Z,16.54
2022-09-15T16:28:08.822Z,16.36
2022-09-15T16:30:37.143Z,16.58
2022-09-15T16:33:05.688Z,16.16
2022-09-15T16:35:39.618Z,16.16
2022-09-15T16:38:08.126Z,16.27
2022-09-15T16:40:55.323Z,16.25
2022-09-15T16:44:00.817Z,16.08
2022-09-15T16:46:29.415Z,16.02
2022-09-15T16:48:58.588Z,15.89
2022-09-15T16:51:31.623Z,16.06
2022-09-15T16:54:00.303Z,16.01
2022-09-15T16:56:28.741Z,15.91
2022-09-15T16:59:00.530Z,15.70
2022-09-15T17:01:29.559Z,15.88
2022-09-15T17:04:01.588Z,15.82
2022-09-15T17:06:31.304Z,15.72
2022-09-15T17:08:59.740Z,15.96
2022-09-15T17:11:29.125Z,15.74
2022-09-15T17:13:57.499Z,15.76
2022-09-15T17:16:26.195Z,15.63
2022-09-15T17:18:54.576Z,15.70
2022-09-15T17:21:23.257Z,15.71
2022-09-15T17:23:53.239Z,15.69
2022-09-15T17:26:24.630Z,15.55
2022-09-15T17:29:12.004Z,15.57
2022-09-15T17:31:40.432Z,15.51
2022-09-15T17:34:29.436Z,15.65
2022-09-15T17:36:57.792Z,15.49
2022-09-15T17:39:27.567Z,15.57
2022-09-15T17:41:55.897Z,15.58
2022-09-15T17:44:24.226Z,15.38
2022-09-15T17:46:56.442Z,15.38
2022-09-15T17:49:24.819Z,15.37
2022-09-15T17:51:53.129Z,15.13
2022-09-15T17:54:21.455Z,15.01
2022-09-15T17:56:51.640Z,15.05
2022-09-15T18:02:05.917Z,14.96
2022-09-15T18:04:34.849Z,15.06
2022-09-15T18:07:03.304Z,15.10
2022-09-15T18:09:31.685Z,14.88
2022-09-15T18:12:01.400Z,14.98
2022-09-15T18:14:29.853Z,14.84
2022-09-15T18:17:17.059Z,14.86
2022-09-15T18:19:45.408Z,14.85
2022-09-15T18:22:14.342Z,14.83
2022-09-15T18:24:42.967Z,14.71
2022-09-15T18:27:14.038Z,14.82
2022-09-15T18:29:42.474Z,14.77
2022-09-15T18:32:11.058Z,14.80
2022-09-15T18:34:39.377Z,14.76
2022-09-15T18:37:08.504Z,14.73
2022-09-15T18:39:37.560Z,14.77
2022-09-15T18:42:06.354Z,14.69
2022-09-15T18:44:38.953Z,14.48
2022-09-15T18:47:07.833Z,14.53
2022-09-15T18:49:36.177Z,14.67
2022-09-15T18:52:08.077Z,14.67
2022-09-15T18:54:54.697Z,14.77
2022-09-15T18:57:23.660Z,14.58
2022-09-15T18:59:53.402Z,14.82
2022-09-15T19:02:33.616Z,14.84
2022-09-15T19:05:01.992Z,14.80
2022-09-15T19:07:30.345Z,14.93
2022-09-15T19:09:59.183Z,14.79
2022-09-15T19:12:28.055Z,14.79
2022-09-15T19:15:01.393Z,14.92
2022-09-15T19:17:30.066Z,14.78
2022-09-15T19:20:00.326Z,14.89
2022-09-15T19:22:28.732Z,14.95
2022-09-15T19:24:58.071Z,14.92
2022-09-15T19:27:26.877Z,14.85
2022-09-15T19:30:01.625Z,14.83
2022-09-15T19:32:30.069Z,14.77
2022-09-15T19:34:58.416Z,14.65
2022-09-15T19:37:26.704Z,14.63
2022-09-15T19:39:55.272Z,14.59
2022-09-15T19:42:23.668Z,14.47
2022-09-15T19:44:51.984Z,14.46
2022-09-15T19:47:22.167Z,14.40
2022-09-15T19:49:52.222Z,14.39
2022-09-15T19:52:20.558Z,14.36
2022-09-15T19:54:50.058Z,14.43
2022-09-15T19:57:18.375Z,14.14
2022-09-15T19:59:46.830Z,14.41
2022-09-15T20:02:15.722Z,14.33
2022-09-15T20:07:28.486Z,14.38
2022-09-15T20:09:57.002Z,14.23
2022-09-15T20:12:44.240Z,14.32
2022-09-15T20:15:12.732Z,14.43
2022-09-15T20:17:42.537Z,14.45
2022-09-15T20:20:12.851Z,14.27
2022-09-15T20:22:41.230Z,14.30
2022-09-15T20:25:09.775Z,14.39
2022-09-15T20:27:38.446Z,14.28
2022-09-15T20:30:08.073Z,14.05
2022-09-15T20:32:36.812Z,14.11
2022-09-15T20:35:06.042Z,14.09
2022-09-15T20:37:37.629Z,14.09
2022-09-15T20:40:06.773Z,14.13
2022-09-15T20:42:35.502Z,14.09
2022-09-15T20:45:03.931Z,14.01
2022-09-15T20:47:35.062Z,14.09
2022-09-15T20:50:03.436Z,14.08
2022-09-15T20:52:37.447Z,13.92
2022-09-15T20:55:08.547Z,13.74
2022-09-15T20:57:37.379Z,13.61
2022-09-15T21:00:08.950Z,13.71
2022-09-15T21:02:37.334Z,13.63
2022-09-15T21:05:06.071Z,13.73
2022-09-15T21:07:34.585Z,13.52
2022-09-15T21:10:03.495Z,13.62
2022-09-15T21:12:33.789Z,13.50
2022-09-15T21:15:03.368Z,13.52
2022-09-15T21:17:32.078Z,13.25
2022-09-15T21:20:00.443Z,13.37
2022-09-15T21:22:28.756Z,13.45
2022-09-15T21:24:57.107Z,13.48
2022-09-15T21:27:28.005Z,13.52
2022-09-15T21:29:58.078Z,13.33
2022-09-15T21:32:26.352Z,13.37
2022-09-15T21:34:56.142Z,13.23
2022-09-15T21:37:24.541Z,13.24
2022-09-15T21:39:52.857Z,13.28
2022-09-15T21:42:21.540Z,13.43
2022-09-15T21:44:50.236Z,13.45
2022-09-15T21:47:20.399Z,13.39
2022-09-15T21:49:48.824Z,13.48
2022-09-15T21:52:17.612Z,13.31
2022-09-15T21:54:45.935Z,13.32
2022-09-15T21:57:15.531Z,13.35
2022-09-15T21:59:44.262Z,13.47
2022-09-15T22:02:12.627Z,13.45
2022-09-15T22:04:42.365Z,13.43
2022-09-15T22:07:11.344Z,13.55
2022-09-15T22:09:40.133Z,13.51
2022-09-15T22:12:08.775Z,13.37
2022-09-15T22:14:37.074Z,13.28
2022-09-15T22:17:06.051Z,13.41
2022-09-15T22:19:34.401Z,13.50
2022-09-15T22:22:04.253Z,13.50
2022-09-15T22:24:32.697Z,13.37
2022-09-15T22:27:01.087Z,13.33
2022-09-15T22:29:29.486Z,13.49
2022-09-15T22:31:58.217Z,13.33
2022-09-15T22:34:26.599Z,13.40
2022-09-15T22:36:54.955Z,13.39
2022-09-15T22:39:43.891Z,13.48
2022-09-15T22:42:14.124Z,13.42
2022-09-15T22:44:42.650Z,13.51
2022-09-15T22:47:11.482Z,13.29
2022-09-15T22:49:39.910Z,13.19
2022-09-15T22:52:08.222Z,13.40
2022-09-15T22:54:37.939Z,13.30
2022-09-15T22:57:06.555Z,13.33
2022-09-15T22:59:34.875Z,13.35
2022-09-15T23:02:03.575Z,13.30
2022-09-15T23:04:34.498Z,13.18
2022-09-15T23:07:02.858Z,13.11
2022-09-15T23:09:31.319Z,13.16
2022-09-15T23:12:01.030Z,13.22
2022-09-15T23:14:32.023Z,13.09
2022-09-15T23:17:00.311Z,13.18
2022-09-15T23:19:28.771Z,13.07
2022-09-15T23:21:57.092Z,13.19
2022-09-15T23:24:25.450Z,13.06
2022-09-15T23:26:53.871Z,12.99
2022-09-15T23:29:26.513Z,13.02
2022-09-15T23:31:55.015Z,13.09
2022-09-15T23:34:23.434Z,12.94
2022-09-15T23:36:51.791Z,12.95
2022-09-15T23:39:20.704Z,12.91
2022-09-15T23:41:49.028Z,13.00
2022-09-15T23:44:17.412Z,13.08
2022-09-15T23:46:47.381Z,13.10
2022-09-15T23:49:18.724Z,13.11
2022-09-15T23:51:47.378Z,13.03
2022-09-15T23:54:15.825Z,12.89
2022-09-15T23:56:44.216Z,13.04
2022-09-15T23:59:12.824Z,13.06
